Time;durP1;ratioP1;P1;durP2;ratioP2;P2;SDS_P1;SDS_P2;PMS_P1;PMS_P2;Temp;Humidity;BMP_temperature;BMP_pressure;BME280_temperature;BME280_humidity;BME280_pressure;Samples;Min_cycle;Max_cycle;Signal;HPM_P1;HPM_P2
2022/07/11 05:00:42;;;;;;;2.43;2.23;;;17.80;97.20;;;;;;1708238;29;20646;-72
2022/07/11 05:01:33;;;;;;;2.95;2.65;;;17.80;97.20;;;;;;1708291;29;20337;-72
2022/07/11 05:02:24;;;;;;;3.00;2.30;;;17.80;97.20;;;;;;1708336;29;20211;-72
2022/07/11 05:03:16;;;;;;;3.58;2.40;;;17.70;97.20;;;;;;1708073;28;20818;-72
2022/07/11 05:04:08;;;;;;;3.22;2.70;;;17.80;97.20;;;;;;1708245;29;20722;-72
2022/07/11 05:04:58;;;;;;;3.35;2.50;;;17.80;97.20;;;;;;1708210;29;20202;-72
2022/07/11 05:05:51;;;;;;;3.20;2.90;;;17.80;97.20;;;;;;1707750;29;20191;-73
2022/07/11 05:06:41;;;;;;;2.90;2.65;;;17.80;97.20;;;;;;1707993;29;20210;-72
2022/07/11 05:07:33;;;;;;;3.07;2.77;;;17.80;97.20;;;;;;1707886;29;20233;-73
2022/07/11 05:08:24;;;;;;;2.80;2.60;;;17.80;97.20;;;;;;1708058;29;20565;-72
2022/07/11 05:09:16;;;;;;;2.83;2.63;;;17.80;97.20;;;;;;1708382;29;20640;-73
2022/07/11 05:10:07;;;;;;;3.00;2.80;;;17.80;97.20;;;;;;1708307;29;20445;-72
2022/07/11 05:10:59;;;;;;;3.78;2.83;;;17.80;97.20;;;;;;1708266;29;20342;-72
2022/07/11 05:11:50;;;;;;;2.95;2.75;;;17.80;97.20;;;;;;1708165;29;20210;-72
2022/07/11 05:12:42;;;;;;;4.40;3.17;;;17.80;97.20;;;;;;1708011;29;20298;-73
2022/07/11 05:13:32;;;;;;;4.38;2.75;;;17.80;97.20;;;;;;1708165;29;20210;-73
2022/07/11 05:14:24;;;;;;;4.00;2.90;;;17.80;97.20;;;;;;1708149;29;20285;-74
2022/07/11 05:15:15;;;;;;;3.05;2.75;;;17.80;97.20;;;;;;1706689;29;20221;-72
2022/07/11 05:16:08;;;;;;;3.50;3.20;;;17.80;97.20;;;;;;1707772;29;20226;-72
2022/07/11 05:16:59;;;;;;;3.22;2.55;;;17.80;97.20;;;;;;1707842;29;20209;-72
2022/07/11 05:17:51;;;;;;;3.27;3.00;;;17.80;97.20;;;;;;1708051;29;20244;-72
2022/07/11 05:18:42;;;;;;;4.05;3.10;;;17.90;97.20;;;;;;1707959;29;20202;-73
2022/07/11 05:19:34;;;;;;;3.37;2.30;;;17.90;97.20;;;;;;1707784;29;20285;-72
2022/07/11 05:20:24;;;;;;;2.92;2.67;;;17.90;97.20;;;;;;1708135;29;20457;-72
2022/07/11 05:21:21;;;;;;;2.97;2.63;;;17.90;97.20;;;;;;1708020;29;20281;-72
2022/07/11 05:22:12;;;;;;;3.15;2.80;;;17.90;97.20;;;;;;1708192;29;20217;-72
2022/07/11 05:23:04;;;;;;;3.00;2.70;;;17.90;97.20;;;;;;1708026;28;20302;-72
2022/07/11 05:23:55;;;;;;;5.30;2.50;;;18.00;97.20;;;;;;1707704;29;20194;-72
2022/07/11 05:24:47;;;;;;;2.60;2.40;;;18.00;97.20;;;;;;1708170;29;20286;-72
2022/07/11 05:25:37;;;;;;;7.78;2.72;;;18.00;97.20;;;;;;1708119;29;20211;-72
2022/07/11 05:26:29;;;;;;;3.90;2.73;;;18.00;97.20;;;;;;1708178;29;20285;-72
2022/07/11 05:27:20;;;;;;;4.45;3.05;;;18.00;97.20;;;;;;1707882;29;20202;-72
2022/07/11 05:28:12;;;;;;;4.57;2.78;;;18.10;97.20;;;;;;1708000;29;20729;-72
2022/07/11 05:29:03;;;;;;;3.47;3.10;;;18.10;97.20;;;;;;1708061;29;20692;-72
2022/07/11 05:29:54;;;;;;;3.30;2.83;;;18.10;97.20;;;;;;1707950;29;20248;-72
2022/07/11 05:30:45;;;;;;;2.60;2.40;;;18.10;97.20;;;;;;1707965;28;20203;-72
2022/07/11 05:31:39;;;;;;;3.60;3.17;;;18.10;97.20;;;;;;1708076;29;20206;-73
2022/07/11 05:32:30;;;;;;;3.05;2.83;;;18.10;97.20;;;;;;1708012;29;20553;-72
2022/07/11 05:33:22;;;;;;;3.38;3.00;;;18.10;97.20;;;;;;1707945;28;20226;-72
2022/07/11 05:34:13;;;;;;;3.20;2.90;;;18.10;97.20;;;;;;1708033;29;20202;-72
2022/07/11 05:35:05;;;;;;;2.97;2.77;;;18.10;97.20;;;;;;1707968;29;20236;-72
2022/07/11 05:35:56;;;;;;;3.65;3.28;;;18.10;97.20;;;;;;1707920;29;20202;-72
2022/07/11 05:36:48;;;;;;;3.77;3.40;;;18.10;97.20;;;;;;1707710;29;20253;-71
2022/07/11 05:37:39;;;;;;;3.30;3.00;;;18.10;97.20;;;;;;1708126;29;20815;-71
2022/07/11 05:38:30;;;;;;;3.40;3.10;;;18.10;97.20;;;;;;1707999;29;20683;-71
2022/07/11 05:39:21;;;;;;;3.28;2.92;;;18.10;97.20;;;;;;1708052;29;20584;-71
2022/07/11 05:40:13;;;;;;;3.87;3.57;;;18.10;97.20;;;;;;1707950;29;20285;-71
2022/07/11 05:41:04;;;;;;;3.60;3.38;;;18.10;97.20;;;;;;1707994;29;20221;-71
2022/07/11 05:41:56;;;;;;;4.00;3.40;;;18.10;97.20;;;;;;1707986;29;20289;-71
2022/07/11 05:42:47;;;;;;;3.60;3.30;;;18.10;97.20;;;;;;1707897;28;20214;-71
2022/07/11 05:43:39;;;;;;;3.90;3.50;;;18.10;97.20;;;;;;1708150;29;20698;-71
2022/07/11 05:44:29;;;;;;;3.90;3.50;;;18.10;97.20;;;;;;1708096;29;20210;-71
2022/07/11 05:45:21;;;;;;;4.93;3.90;;;18.10;97.20;;;;;;1708149;29;20191;-71
2022/07/11 05:46:12;;;;;;;4.05;3.75;;;18.10;97.20;;;;;;1707924;29;20585;-71
2022/07/11 05:47:05;;;;;;;4.17;3.87;;;18.10;97.20;;;;;;1707498;29;20953;-71
2022/07/11 05:47:56;;;;;;;3.55;3.35;;;18.10;97.20;;;;;;1707944;29;20199;-71
2022/07/11 05:48:48;;;;;;;3.80;3.40;;;18.10;97.20;;;;;;1707906;29;20206;-71
2022/07/11 05:49:39;;;;;;;4.60;4.20;;;18.20;97.20;;;;;;1707949;29;20213;-71
2022/07/11 05:50:30;;;;;;;4.70;4.40;;;18.20;97.20;;;;;;1707899;29;20297;-71
2022/07/11 05:51:21;;;;;;;4.78;4.40;;;18.20;97.20;;;;;;1707987;29;20983;-71
2022/07/11 05:52:13;;;;;;;5.37;4.13;;;18.20;97.20;;;;;;1707938;29;20285;-72
2022/07/11 05:53:04;;;;;;;3.63;3.42;;;18.20;97.20;;;;;;1707866;28;20234;-72
2022/07/11 05:53:55;;;;;;;4.90;4.17;;;18.20;97.20;;;;;;1707877;29;20291;-71
2022/07/11 05:54:46;;;;;;;6.15;4.53;;;18.30;97.20;;;;;;1707880;29;20579;-72
2022/07/11 05:55:38;;;;;;;4.57;4.13;;;18.30;97.20;;;;;;1707983;29;20294;-72
2022/07/11 05:56:29;;;;;;;5.78;5.20;;;18.30;97.20;;;;;;1705524;29;20210;-71
2022/07/11 05:57:21;;;;;;;4.88;4.45;;;18.30;97.20;;;;;;1706728;29;20218;-72
2022/07/11 05:58:12;;;;;;;4.55;4.15;;;18.30;97.20;;;;;;1707210;29;20218;-71
2022/07/11 05:59:04;;;;;;;4.80;4.40;;;18.30;97.20;;;;;;1706910;29;20736;-72
2022/07/11 05:59:57;;;;;;;5.75;4.50;;;18.30;97.20;;;;;;1707316;29;20211;-72
2022/07/11 06:00:49;;;;;;;9.77;4.72;;;18.30;97.20;;;;;;1707411;29;20199;-72
2022/07/11 06:01:40;;;;;;;4.45;4.05;;;18.40;97.20;;;;;;1707547;29;20206;-72
2022/07/11 06:02:33;;;;;;;5.07;3.60;;;18.40;97.20;;;;;;1707585;29;20237;-72
2022/07/11 06:03:24;;;;;;;4.00;3.70;;;18.40;97.20;;;;;;1707031;29;20469;-72
2022/07/11 06:04:16;;;;;;;3.93;3.63;;;18.40;97.20;;;;;;1707426;29;20222;-72
2022/07/11 06:05:07;;;;;;;6.82;4.35;;;18.50;97.20;;;;;;1707103;29;20501;-72
2022/07/11 06:05:59;;;;;;;5.53;4.40;;;18.50;97.20;;;;;;1707406;29;20571;-72
2022/07/11 06:06:50;;;;;;;4.47;4.07;;;18.50;97.20;;;;;;1706480;29;20596;-72
2022/07/11 06:08:51;;;;;;;4.20;3.90;;;18.60;97.20;;;;;;1707484;29;20677;-72
2022/07/11 06:09:41;;;;;;;4.55;3.92;;;18.60;97.20;;;;;;1707424;29;20580;-71
2022/07/11 06:10:33;;;;;;;4.40;4.10;;;18.70;97.20;;;;;;1707404;29;20581;-72
2022/07/11 06:11:25;;;;;;;4.50;4.10;;;18.70;97.20;;;;;;1706904;29;20202;-72
2022/07/11 06:12:16;;;;;;;4.18;3.88;;;18.70;97.20;;;;;;1706886;29;20677;-72
2022/07/11 06:13:07;;;;;;;4.70;4.20;;;18.70;97.20;;;;;;1707410;28;20673;-72
2022/07/11 06:13:58;;;;;;;4.00;3.70;;;18.70;97.20;;;;;;1707721;29;20202;-74
2022/07/11 06:14:50;;;;;;;4.03;3.65;;;18.80;97.20;;;;;;1707652;29;20198;-73
2022/07/11 06:15:41;;;;;;;5.20;4.15;;;18.80;97.20;;;;;;1707716;29;20206;-72
2022/07/11 06:16:35;;;;;;;4.17;3.80;;;18.80;97.20;;;;;;1707289;29;20289;-73
2022/07/11 06:17:26;;;;;;;6.22;4.68;;;18.90;97.20;;;;;;1713900;28;20235;-73
2022/07/11 06:18:20;;;;;;;5.63;3.67;;;18.90;97.20;;;;;;1714269;28;20661;-73
2022/07/11 06:19:11;;;;;;;3.78;3.50;;;18.90;97.20;;;;;;1714277;28;20202;-73
2022/07/11 06:20:03;;;;;;;4.30;3.80;;;18.90;97.20;;;;;;1713950;28;20202;-73
2022/07/11 06:20:54;;;;;;;4.13;3.72;;;18.90;97.20;;;;;;1713904;28;20654;-73
2022/07/11 06:21:46;;;;;;;4.00;3.45;;;18.90;97.20;;;;;;1711966;28;20202;-73
2022/07/11 06:22:37;;;;;;;4.18;3.50;;;19.00;97.20;;;;;;1704965;29;20195;-73
2022/07/11 06:23:29;;;;;;;3.77;3.47;;;19.00;97.20;;;;;;1705364;29;20240;-73
2022/07/11 06:24:20;;;;;;;4.18;3.78;;;19.00;97.20;;;;;;1705172;29;20284;-73
2022/07/11 06:25:12;;;;;;;5.50;3.67;;;19.10;97.20;;;;;;1705196;29;20359;-72
2022/07/11 06:26:04;;;;;;;3.92;3.63;;;19.10;97.20;;;;;;1705673;29;20701;-73
2022/07/11 06:27:00;;;;;;;4.15;3.55;;;19.10;97.20;;;;;;1704456;29;20203;-72
2022/07/11 06:27:51;;;;;;;4.35;3.70;;;19.10;97.20;;;;;;1706069;29;20208;-73
2022/07/11 06:28:42;;;;;;;3.93;3.63;;;19.20;97.20;;;;;;1707066;29;20198;-73
2022/07/11 06:29:33;;;;;;;4.38;4.07;;;19.20;97.20;;;;;;1707427;29;20206;-73
2022/07/11 06:30:25;;;;;;;4.80;4.07;;;19.20;97.20;;;;;;1707805;29;20211;-72
2022/07/11 06:31:16;;;;;;;4.32;3.92;;;19.20;97.20;;;;;;1705498;29;20793;-73
2022/07/11 06:32:08;;;;;;;4.55;4.25;;;19.20;97.20;;;;;;1705212;29;20254;-73
2022/07/11 06:32:59;;;;;;;4.00;3.70;;;19.20;97.20;;;;;;1705522;28;20634;-73
2022/07/11 06:33:56;;;;;;;4.13;3.83;;;19.20;97.20;;;;;;1705835;29;20282;-73
2022/07/11 06:34:46;;;;;;;3.72;3.42;;;19.20;97.20;;;;;;1705615;29;20198;-73
2022/07/11 06:35:38;;;;;;;3.67;3.37;;;19.30;97.20;;;;;;1705494;29;20226;-73
2022/07/11 06:36:30;;;;;;;4.05;3.35;;;19.30;97.20;;;;;;1705437;29;20458;-72
2022/07/11 06:37:21;;;;;;;3.90;3.60;;;19.30;97.20;;;;;;1705915;29;20211;-72
2022/07/11 06:38:13;;;;;;;3.33;3.03;;;19.30;97.20;;;;;;1705603;29;20293;-72
2022/07/11 06:39:04;;;;;;;3.72;3.42;;;19.40;97.20;;;;;;1705968;29;20218;-72
2022/07/11 06:39:56;;;;;;;3.80;3.50;;;19.40;97.20;;;;;;1705447;29;20997;-72
2022/07/11 06:40:47;;;;;;;4.20;3.90;;;19.40;97.20;;;;;;1705304;29;20203;-73
2022/07/11 06:41:39;;;;;;;4.25;3.60;;;19.40;97.20;;;;;;1705386;28;20286;-73
2022/07/11 06:42:29;;;;;;;4.85;4.15;;;19.40;97.20;;;;;;1705147;29;20217;-73
2022/07/11 06:43:21;;;;;;;4.57;4.10;;;19.40;97.20;;;;;;1705760;28;20297;-72
2022/07/11 06:44:12;;;;;;;5.05;4.15;;;19.40;97.20;;;;;;1705835;29;20195;-73
2022/07/11 06:45:04;;;;;;;4.20;3.90;;;19.40;97.20;;;;;;1705878;29;20301;-72
2022/07/11 06:45:55;;;;;;;4.45;4.15;;;19.40;97.20;;;;;;1705351;29;20214;-72
2022/07/11 06:46:48;;;;;;;4.13;3.83;;;19.40;97.20;;;;;;1705116;29;20203;-72
2022/07/11 06:47:39;;;;;;;3.53;3.33;;;19.40;97.20;;;;;;1705347;29;20454;-72
2022/07/11 06:48:30;;;;;;;4.27;3.87;;;19.40;97.20;;;;;;1705405;29;20202;-72
2022/07/11 06:49:22;;;;;;;4.53;4.10;;;19.40;97.20;;;;;;1705905;29;20210;-72
2022/07/11 06:50:14;;;;;;;4.38;4.00;;;19.40;97.20;;;;;;1705726;29;20573;-72
2022/07/11 06:51:05;;;;;;;4.07;3.78;;;19.30;97.20;;;;;;1705420;29;20541;-72
2022/07/11 06:51:57;;;;;;;4.80;4.40;;;19.30;97.20;;;;;;1705406;29;20254;-72
2022/07/11 06:52:48;;;;;;;4.30;3.90;;;19.30;97.20;;;;;;1705392;28;20198;-72
2022/07/11 06:53:39;;;;;;;4.53;4.23;;;19.40;97.20;;;;;;1705336;29;20278;-73
2022/07/11 06:54:30;;;;;;;6.07;4.30;;;19.40;97.20;;;;;;1705251;29;20217;-72
2022/07/11 06:55:22;;;;;;;5.00;4.60;;;19.40;97.20;;;;;;1705329;29;20289;-72
2022/07/11 06:56:14;;;;;;;5.25;4.78;;;19.40;97.20;;;;;;1705362;29;20210;-72
2022/07/11 06:57:05;;;;;;;6.38;4.18;;;19.40;97.20;;;;;;1705875;29;20214;-73
2022/07/11 06:57:57;;;;;;;5.50;4.87;;;19.40;97.20;;;;;;1705275;29;20277;-72
2022/07/11 06:58:48;;;;;;;6.00;4.55;;;19.40;97.20;;;;;;1705497;29;20210;-72
2022/07/11 06:59:39;;;;;;;8.27;4.50;;;19.40;97.20;;;;;;1705347;29;20278;-72
2022/07/11 07:00:31;;;;;;;10.20;4.93;;;19.30;97.20;;;;;;1705104;29;20457;-72
2022/07/11 07:01:22;;;;;;;4.85;3.90;;;19.40;97.20;;;;;;1705173;29;20217;-72
2022/07/11 07:02:14;;;;;;;5.23;4.60;;;19.30;97.20;;;;;;1705109;29;20285;-73
2022/07/11 07:03:04;;;;;;;4.65;4.25;;;19.30;97.20;;;;;;1705580;28;20229;-73
2022/07/11 07:03:56;;;;;;;4.70;4.40;;;19.40;97.20;;;;;;1705575;29;20210;-72
2022/07/11 07:04:48;;;;;;;4.90;4.40;;;19.40;97.20;;;;;;1705249;29;20221;-72
2022/07/11 07:05:40;;;;;;;4.20;3.85;;;19.40;97.20;;;;;;1705352;29;20190;-72
2022/07/11 07:06:31;;;;;;;4.40;4.00;;;19.40;97.20;;;;;;1705245;29;20195;-72
2022/07/11 07:07:23;;;;;;;5.33;4.43;;;19.40;97.20;;;;;;1705307;29;20289;-73
2022/07/11 07:08:13;;;;;;;4.40;4.10;;;19.40;97.20;;;;;;1705166;29;20446;-72
2022/07/11 07:09:05;;;;;;;3.80;3.50;;;19.50;97.20;;;;;;1705451;29;20290;-73
2022/07/11 07:09:56;;;;;;;4.70;4.30;;;19.50;97.20;;;;;;1705671;29;20199;-73
2022/07/11 07:10:48;;;;;;;5.15;4.70;;;19.50;97.20;;;;;;1705030;29;20205;-73
2022/07/11 07:11:39;;;;;;;5.22;3.70;;;19.50;97.20;;;;;;1705028;29;21688;-73
2022/07/11 07:12:31;;;;;;;3.88;3.58;;;19.50;97.20;;;;;;1704991;29;20207;-73
2022/07/11 07:13:23;;;;;;;3.70;3.40;;;19.60;97.20;;;;;;1705018;29;20325;-72
2022/07/11 07:14:15;;;;;;;3.65;3.35;;;19.60;97.20;;;;;;1705159;29;20214;-72
2022/07/11 07:15:07;;;;;;;3.13;2.92;;;19.60;97.20;;;;;;1705503;29;20562;-72
2022/07/11 07:15:58;;;;;;;3.28;3.08;;;19.70;97.20;;;;;;1705068;29;20218;-72
2022/07/11 07:16:49;;;;;;;3.15;2.95;;;19.70;97.20;;;;;;1705659;29;20206;-73
2022/07/11 07:17:41;;;;;;;3.10;2.73;;;19.70;97.20;;;;;;1704920;29;20195;-73
2022/07/11 07:18:32;;;;;;;3.70;3.40;;;19.80;97.20;;;;;;1704937;29;20235;-73
2022/07/11 07:19:24;;;;;;;4.13;3.37;;;19.80;97.20;;;;;;1705326;29;20237;-73
2022/07/11 07:20:16;;;;;;;3.70;3.40;;;19.80;97.20;;;;;;1705348;29;20461;-73
2022/07/11 07:21:07;;;;;;;2.90;2.70;;;19.90;97.20;;;;;;1705768;29;21821;-73
2022/07/11 07:21:58;;;;;;;3.90;3.60;;;19.90;97.20;;;;;;1706227;29;20210;-72
2022/07/11 07:22:50;;;;;;;3.45;3.25;;;19.90;97.20;;;;;;1705677;29;20220;-72
2022/07/11 07:23:41;;;;;;;3.65;3.45;;;19.90;97.20;;;;;;1705556;29;20206;-73
2022/07/11 07:24:33;;;;;;;3.90;3.33;;;20.00;97.20;;;;;;1705068;29;20662;-73
2022/07/11 07:25:23;;;;;;;3.42;3.13;;;20.00;97.20;;;;;;1704930;29;20214;-73
2022/07/11 07:26:15;;;;;;;4.00;3.70;;;20.00;97.20;;;;;;1705622;29;20209;-73
2022/07/11 07:27:06;;;;;;;3.33;3.00;;;20.10;97.20;;;;;;1704965;29;20209;-73
2022/07/11 07:27:58;;;;;;;3.60;3.30;;;20.10;97.20;;;;;;1705276;29;20654;-73
2022/07/11 07:28:49;;;;;;;3.72;3.35;;;20.20;97.20;;;;;;1705284;29;20217;-73
2022/07/11 07:29:41;;;;;;;3.63;3.40;;;20.20;97.20;;;;;;1705528;29;20402;-73
2022/07/11 07:30:32;;;;;;;4.35;3.60;;;20.20;97.20;;;;;;1705239;29;20206;-73
2022/07/11 07:31:24;;;;;;;3.53;3.22;;;20.20;97.20;;;;;;1705152;29;20199;-73
2022/07/11 07:32:14;;;;;;;3.42;3.13;;;20.30;97.20;;;;;;1705305;29;20203;-73
2022/07/11 07:33:06;;;;;;;3.53;3.27;;;20.30;97.20;;;;;;1705176;28;20297;-72
2022/07/11 07:33:57;;;;;;;3.92;3.53;;;20.30;97.20;;;;;;1705176;29;20198;-72
2022/07/11 07:34:49;;;;;;;3.10;2.90;;;20.40;97.20;;;;;;1705309;29;20285;-72
2022/07/11 07:35:41;;;;;;;3.65;3.35;;;20.40;97.20;;;;;;1705163;29;20206;-73
2022/07/11 07:36:33;;;;;;;4.10;3.60;;;20.40;97.20;;;;;;1704703;29;20206;-73
2022/07/11 07:37:23;;;;;;;4.65;3.15;;;20.50;97.20;;;;;;1704953;29;20620;-73
2022/07/11 07:38:15;;;;;;;3.80;3.50;;;20.50;97.20;;;;;;1704941;29;20230;-73
2022/07/11 07:39:06;;;;;;;4.47;3.35;;;20.50;97.20;;;;;;1705219;29;20210;-73
2022/07/11 07:39:58;;;;;;;3.13;2.90;;;20.50;97.20;;;;;;1705235;29;20286;-73
2022/07/11 07:40:48;;;;;;;3.92;3.63;;;20.60;97.20;;;;;;1705199;29;20221;-73
2022/07/11 07:41:40;;;;;;;3.40;3.10;;;20.60;97.20;;;;;;1705166;29;20293;-73
2022/07/11 07:42:31;;;;;;;3.60;3.25;;;20.60;97.20;;;;;;1705911;29;20206;-73
2022/07/11 07:43:23;;;;;;;3.77;3.47;;;20.60;97.20;;;;;;1705407;29;20310;-73
2022/07/11 07:44:14;;;;;;;3.50;3.20;;;20.60;97.20;;;;;;1705393;29;20211;-73
2022/07/11 07:45:06;;;;;;;3.93;3.50;;;20.50;97.20;;;;;;1704927;29;20290;-73
2022/07/11 07:45:57;;;;;;;3.60;3.30;;;20.50;97.20;;;;;;1705086;29;20198;-73
2022/07/11 07:46:48;;;;;;;3.33;3.00;;;20.50;97.20;;;;;;1705022;29;20213;-73
2022/07/11 07:47:39;;;;;;;4.07;3.33;;;20.50;97.20;;;;;;1705150;29;20221;-73
2022/07/11 07:48:31;;;;;;;7.47;3.60;;;20.50;97.20;;;;;;1705247;29;20286;-73
2022/07/11 07:49:22;;;;;;;3.60;3.30;;;20.40;97.20;;;;;;1705583;29;20206;-73
2022/07/11 07:50:14;;;;;;;5.30;3.97;;;20.40;97.20;;;;;;1705281;29;20230;-73
2022/07/11 07:51:06;;;;;;;3.80;3.50;;;20.40;97.20;;;;;;1704912;29;20450;-72
2022/07/11 07:51:58;;;;;;;3.53;3.33;;;20.40;97.20;;;;;;1705100;29;20298;-72
2022/07/11 07:52:49;;;;;;;3.83;2.75;;;20.30;97.20;;;;;;1705469;28;20226;-73
2022/07/11 07:53:41;;;;;;;3.23;3.03;;;20.30;97.20;;;;;;1704966;28;20269;-73
2022/07/11 07:54:31;;;;;;;4.07;3.65;;;20.30;97.20;;;;;;1705970;29;20199;-72
2022/07/11 07:55:23;;;;;;;3.97;3.60;;;20.30;97.20;;;;;;1706665;29;20721;-73
2022/07/11 07:56:14;;;;;;;5.32;3.15;;;20.30;97.20;;;;;;1706851;29;20221;-73
2022/07/11 07:57:06;;;;;;;4.67;3.37;;;20.20;97.20;;;;;;1706077;29;20226;-73
2022/07/11 07:57:57;;;;;;;3.63;3.22;;;20.20;97.20;;;;;;1706199;29;20450;-72
2022/07/11 07:58:51;;;;;;;3.27;3.00;;;20.20;97.20;;;;;;1706946;29;20281;-73
2022/07/11 07:59:42;;;;;;;3.13;2.92;;;20.20;97.20;;;;;;1706298;29;20270;-73
2022/07/11 08:01:45;;;;;;;3.22;2.60;;;20.30;97.20;;;;;;1706797;29;20202;-73
2022/07/11 08:02:36;;;;;;;4.18;3.70;;;20.30;97.20;;;;;;1707204;29;20723;-73
2022/07/11 08:03:26;;;;;;;4.03;3.80;;;20.40;97.20;;;;;;1706408;29;20701;-73
2022/07/11 08:04:19;;;;;;;4.07;3.47;;;20.40;97.20;;;;;;1706006;29;20414;-73
2022/07/11 08:05:09;;;;;;;3.80;3.03;;;20.40;97.20;;;;;;1706043;29;20226;-73
2022/07/11 08:06:01;;;;;;;3.60;3.13;;;20.40;97.20;;;;;;1706457;29;20194;-73
2022/07/11 08:06:54;;;;;;;3.75;3.38;;;20.40;97.20;;;;;;1706323;29;20450;-72
2022/07/11 08:07:45;;;;;;;4.65;3.25;;;20.40;97.20;;;;;;1706171;29;20233;-73
2022/07/11 08:08:37;;;;;;;4.47;3.30;;;20.40;97.20;;;;;;1706328;29;20575;-73
2022/07/11 08:09:28;;;;;;;4.22;2.60;;;20.50;97.20;;;;;;1707111;29;20670;-73
2022/07/11 08:10:20;;;;;;;3.10;2.80;;;20.50;97.20;;;;;;1706345;29;20202;-73
2022/07/11 08:11:11;;;;;;;5.78;3.60;;;20.50;97.20;;;;;;1706419;29;20716;-73
2022/07/11 08:12:04;;;;;;;4.50;3.17;;;20.50;97.20;;;;;;1706315;29;20712;-73
2022/07/11 08:12:54;;;;;;;5.00;3.42;;;20.50;97.20;;;;;;1706214;29;20450;-73
2022/07/11 08:13:46;;;;;;;2.90;2.70;;;20.60;97.20;;;;;;1706370;29;20281;-73
2022/07/11 08:14:38;;;;;;;3.88;2.90;;;20.60;97.20;;;;;;1706264;29;20231;-73
2022/07/11 08:15:29;;;;;;;3.30;3.00;;;20.70;97.20;;;;;;1707086;29;20211;-73
2022/07/11 08:16:21;;;;;;;2.70;2.50;;;20.70;97.20;;;;;;1706638;29;20305;-72
2022/07/11 08:17:12;;;;;;;2.88;2.65;;;20.80;97.20;;;;;;1706030;29;20341;-73
2022/07/11 08:18:04;;;;;;;4.13;2.47;;;20.80;97.20;;;;;;1706222;29;20210;-73
2022/07/11 08:18:55;;;;;;;3.90;2.40;;;20.90;97.20;;;;;;1706266;29;20210;-72
2022/07/11 08:19:47;;;;;;;2.65;2.45;;;20.90;97.20;;;;;;1706355;29;20218;-73
2022/07/11 08:20:38;;;;;;;6.70;3.05;;;20.90;97.20;;;;;;1706321;29;20291;-73
2022/07/11 08:21:30;;;;;;;4.17;3.30;;;21.00;97.20;;;;;;1706346;29;20223;-73
2022/07/11 08:22:22;;;;;;;3.90;3.15;;;21.00;97.20;;;;;;1706858;29;20461;-72
2022/07/11 08:23:14;;;;;;;3.35;3.05;;;21.00;97.20;;;;;;1706340;29;20281;-73
2022/07/11 08:24:05;;;;;;;6.25;3.00;;;21.00;97.20;;;;;;1706678;29;20217;-72
2022/07/11 08:24:57;;;;;;;4.38;2.67;;;21.00;97.20;;;;;;1705980;29;20265;-73
2022/07/11 08:25:48;;;;;;;2.28;2.10;;;21.00;97.20;;;;;;1706206;29;20211;-72
2022/07/11 08:26:40;;;;;;;2.57;2.30;;;21.00;97.20;;;;;;1705974;29;20298;-73
2022/07/11 08:27:30;;;;;;;3.08;2.50;;;21.10;97.20;;;;;;1706192;29;20210;-73
2022/07/11 08:28:22;;;;;;;2.43;2.23;;;21.10;97.20;;;;;;1706443;29;20203;-71
2022/07/11 08:29:13;;;;;;;2.88;2.00;;;21.10;97.20;;;;;;1706601;29;20576;-72
2022/07/11 08:30:07;;;;;;;2.42;2.22;;;21.10;97.20;;;;;;1706370;29;20635;-72
2022/07/11 08:30:58;;;;;;;2.40;1.90;;;21.20;97.20;;;;;;1706481;29;20650;-72
2022/07/11 08:31:50;;;;;;;1.70;1.60;;;21.20;97.20;;;;;;1706165;29;20599;-72
2022/07/11 08:32:41;;;;;;;1.50;1.40;;;21.30;97.20;;;;;;1706500;28;20217;-72
2022/07/11 08:33:32;;;;;;;2.00;1.30;;;21.30;97.20;;;;;;1706398;29;20213;-72
2022/07/11 08:34:24;;;;;;;2.63;1.50;;;21.30;97.20;;;;;;1705978;29;20203;-72
2022/07/11 08:35:16;;;;;;;1.40;1.30;;;21.30;97.20;;;;;;1706811;29;20226;-72
2022/07/11 08:36:07;;;;;;;1.73;1.33;;;21.30;97.20;;;;;;1706510;29;20766;-72
2022/07/11 08:36:59;;;;;;;1.73;1.30;;;21.30;97.20;;;;;;1705989;29;20195;-72
2022/07/11 08:37:51;;;;;;;1.50;1.30;;;21.30;97.20;;;;;;1706030;29;20206;-72
2022/07/11 08:38:46;;;;;;;1.30;1.20;;;21.30;97.20;;;;;;1706281;29;20210;-72
2022/07/11 08:39:37;;;;;;;1.40;1.23;;;21.30;97.20;;;;;;1706351;29;20203;-72
2022/07/11 08:40:29;;;;;;;4.30;1.40;;;21.30;97.20;;;;;;1705804;29;20286;-72
2022/07/11 08:41:19;;;;;;;2.28;1.60;;;21.40;97.20;;;;;;1706190;29;20210;-72
2022/07/11 08:42:12;;;;;;;2.10;1.40;;;21.40;97.20;;;;;;1706635;29;20226;-72
2022/07/11 08:43:12;;;;;;;3.28;1.35;;;21.40;97.20;;;;;;1706172;28;20261;-72
2022/07/11 08:44:05;;;;;;;3.40;1.60;;;21.40;97.20;;;;;;1705836;29;20202;-72
2022/07/11 08:44:56;;;;;;;4.60;1.45;;;21.50;97.20;;;;;;1706034;29;20202;-72
2022/07/11 08:45:49;;;;;;;1.65;1.55;;;21.50;97.20;;;;;;1706168;29;20202;-72
2022/07/11 08:46:40;;;;;;;1.90;1.70;;;21.50;97.20;;;;;;1705819;29;20689;-72
2022/07/11 08:47:34;;;;;;;2.75;1.30;;;21.50;97.20;;;;;;1705864;29;20199;-72
2022/07/11 08:48:25;;;;;;;1.40;1.30;;;21.50;97.20;;;;;;1706671;29;20756;-72
2022/07/11 08:49:17;;;;;;;1.40;1.30;;;21.50;97.20;;;;;;1706222;29;20222;-72
2022/07/11 08:50:10;;;;;;;1.67;1.58;;;21.50;97.20;;;;;;1705964;29;20202;-72
2022/07/11 08:51:02;;;;;;;2.10;2.00;;;21.50;97.20;;;;;;1706103;29;20209;-72
2022/07/11 08:51:54;;;;;;;2.97;2.58;;;21.50;97.20;;;;;;1706132;29;20218;-72
2022/07/11 08:52:45;;;;;;;2.15;1.90;;;21.60;97.20;;;;;;1706348;28;20573;-72
2022/07/11 08:53:43;;;;;;;3.17;2.00;;;21.60;97.20;;;;;;1705981;29;20203;-72
2022/07/11 08:54:36;;;;;;;1.70;1.60;;;21.70;97.20;;;;;;1706299;29;20697;-72
2022/07/11 08:55:26;;;;;;;1.40;1.30;;;21.70;97.20;;;;;;1706426;29;20346;-73
2022/07/11 08:56:21;;;;;;;1.60;1.50;;;21.80;97.20;;;;;;1705966;29;20222;-72
2022/07/11 08:57:13;;;;;;;1.40;1.30;;;21.90;97.20;;;;;;1705631;29;20211;-72
2022/07/11 08:58:07;;;;;;;3.13;1.98;;;21.90;97.20;;;;;;1706257;29;20214;-72
2022/07/11 08:58:59;;;;;;;2.13;1.88;;;21.90;97.20;;;;;;1706049;29;20690;-72
2022/07/11 08:59:55;;;;;;;6.07;1.70;;;21.90;97.20;;;;;;1705997;29;20206;-72
2022/07/11 09:00:46;;;;;;;3.03;1.52;;;22.00;97.20;;;;;;1706350;29;20285;-72
2022/07/11 09:01:41;;;;;;;3.67;1.97;;;22.00;97.20;;;;;;1706671;29;20198;-72
2022/07/11 09:02:33;;;;;;;1.90;1.63;;;22.00;97.20;;;;;;1706162;29;20201;-72
2022/07/11 09:03:25;;;;;;;2.00;1.50;;;22.10;97.20;;;;;;1705844;29;20273;-72
2022/07/11 09:04:16;;;;;;;4.30;2.33;;;22.10;97.20;;;;;;1705952;29;20218;-72
2022/07/11 09:05:09;;;;;;;1.58;1.30;;;22.20;97.20;;;;;;1705683;28;20194;-72
2022/07/11 09:06:01;;;;;;;2.10;1.80;;;22.30;97.20;;;;;;1705952;29;20206;-72
2022/07/11 09:06:53;;;;;;;4.10;2.42;;;22.40;97.20;;;;;;1705861;29;20488;-72
2022/07/11 09:07:46;;;;;;;1.30;1.20;;;22.40;97.20;;;;;;1706093;29;20220;-72
2022/07/11 09:08:37;;;;;;;3.50;1.67;;;22.40;97.20;;;;;;1706758;29;21519;-72
2022/07/11 09:09:30;;;;;;;1.90;1.45;;;22.50;97.20;;;;;;1706127;29;20679;-72
2022/07/11 09:10:22;;;;;;;3.05;1.33;;;22.50;97.20;;;;;;1706260;29;20203;-72
2022/07/11 09:11:12;;;;;;;1.70;1.30;;;22.50;97.20;;;;;;1705991;29;20222;-73
2022/07/11 09:12:11;;;;;;;3.13;1.90;;;22.50;97.20;;;;;;1706289;29;20213;-72
2022/07/11 09:13:03;;;;;;;1.40;1.30;;;22.60;97.20;;;;;;1706277;29;20223;-72
2022/07/11 09:13:55;;;;;;;2.50;1.30;;;22.60;97.20;;;;;;1706252;29;20191;-72
2022/07/11 09:14:47;;;;;;;2.00;1.80;;;22.70;97.20;;;;;;1706605;29;20202;-72
2022/07/11 09:15:41;;;;;;;2.30;1.80;;;22.80;97.20;;;;;;1705751;29;20217;-72
2022/07/11 09:16:32;;;;;;;2.70;2.20;;;22.80;97.20;;;;;;1705710;29;20254;-72
2022/07/11 09:17:26;;;;;;;2.23;1.70;;;22.90;97.20;;;;;;1705994;29;20197;-72
2022/07/11 09:18:31;;;;;;;2.25;1.25;;;23.00;97.20;;;;;;1705804;29;20297;-72
2022/07/11 09:19:25;;;;;;;3.22;1.90;;;23.00;97.20;;;;;;1705966;29;20445;-72
2022/07/11 09:20:15;;;;;;;4.80;2.10;;;23.00;97.20;;;;;;1705755;29;20225;-72
2022/07/11 09:26:04;;;;;;;1.25;1.15;;;23.10;97.20;;;;;;1705978;29;20657;-72
2022/07/11 09:26:55;;;;;;;1.60;1.50;;;23.00;97.20;;;;;;1705526;29;20217;-72
2022/07/11 09:27:49;;;;;;;1.30;1.20;;;23.10;97.20;;;;;;1706623;29;20924;-72
2022/07/11 09:28:40;;;;;;;2.38;1.45;;;23.10;97.20;;;;;;1705869;29;20454;-72
2022/07/11 09:29:31;;;;;;;2.33;1.50;;;23.10;97.20;;;;;;1705862;29;20706;-72
2022/07/11 09:30:25;;;;;;;2.17;1.25;;;23.20;97.20;;;;;;1705859;29;20699;-72
2022/07/11 09:31:19;;;;;;;1.25;1.15;;;23.20;97.20;;;;;;1705813;29;20266;-72
2022/07/11 09:32:11;;;;;;;1.92;1.05;;;23.30;97.20;;;;;;1705782;29;20202;-72
2022/07/11 09:33:03;;;;;;;1.25;1.15;;;23.30;97.20;;;;;;1705716;29;20227;-72
2022/07/11 09:34:03;;;;;;;1.20;1.10;;;23.30;97.20;;;;;;1705746;29;20209;-72
2022/07/11 09:35:00;;;;;;;2.13;1.58;;;23.40;97.20;;;;;;1706028;29;20259;-72
2022/07/11 09:35:52;;;;;;;1.83;1.10;;;23.50;97.20;;;;;;1705771;29;20573;-72
2022/07/11 09:36:44;;;;;;;2.13;1.05;;;23.50;97.20;;;;;;1705523;29;20245;-72
2022/07/11 09:37:43;;;;;;;2.22;1.05;;;23.50;97.20;;;;;;1705704;29;20207;-72